KCEZ

Cortez Municipal Airport

Cortez, Colorado, USA
METAR KCEZ 161553Z AUTO 00000KT 10SM CLR 01/M09 A3021 RMK AO2 SLP238 T00111094
Observed Flight Rules
Nov-16 @ 15:53 UTC (31 minutes ago) Visual Flight Rules
Visibility Clouds
10 miles
  • Clear skies
Temperatures Readings
Current 1°C / 34°F
Dewpoint -9°C / 16°F
Humidity 48%
Altimeter 30.21" Hg
Pressure 1023.8 hPa
Elevation 1797
METAR KCEZ 161553Z AUTO 00000KT 10SM CLR 01/M09 A3021 RMK AO2 SLP238 T00111094
Observed Flight Rules
Nov-16 @ 15:53 UTC
(31 minutes ago)
VFR
Clouds
  • Clear skies
Temperature Dewpoint
1°C / 34°F -9°C / 16°F
Humidity Altimeter Pressure
48% 30.21" Hg 1023.8 hPa